createdAt,value
2018-06-14T06:45:23.598Z,89.3
2018-06-14T06:47:58.580Z,90.2
2018-06-14T06:54:41.252Z,90.1
2018-06-14T06:55:01.420Z,89.9
2018-06-14T06:55:21.577Z,89.4
2018-06-14T06:55:41.746Z,89.4
2018-06-14T06:56:39.580Z,89.5
2018-06-14T06:56:59.801Z,89.8
2018-06-14T06:57:41.856Z,89
2018-06-14T06:58:01.994Z,89.2
2018-06-14T06:58:22.169Z,89
2018-06-14T06:59:02.859Z,88.8
2018-06-14T06:59:23.011Z,88.9
2018-06-14T06:59:43.196Z,88.8
2018-06-14T07:00:03.361Z,89
2018-06-14T07:00:23.528Z,89.7
2018-06-14T07:00:43.688Z,89.7
2018-06-14T07:01:03.839Z,89.6
2018-06-14T07:01:24.028Z,89.5
2018-06-14T07:01:44.184Z,89.3
2018-06-14T07:02:04.365Z,89.6
2018-06-14T07:02:24.542Z,89.4
2018-06-14T07:02:44.794Z,89.5
2018-06-14T07:03:04.937Z,89.5
2018-06-14T07:03:25.103Z,89
2018-06-14T07:03:45.274Z,88.9
2018-06-14T07:04:05.424Z,88.9
2018-06-14T07:04:25.588Z,89.4
2018-06-14T07:04:45.736Z,89.1
2018-06-14T07:05:05.889Z,89.7
2018-06-14T07:05:26.054Z,89.5
2018-06-14T07:05:46.199Z,89.8
2018-06-14T07:06:06.431Z,90.4
2018-06-14T07:06:26.564Z,90.1
2018-06-14T07:06:46.742Z,89
2018-06-14T07:07:06.954Z,88.7
2018-06-14T07:07:27.120Z,89.1
2018-06-14T07:07:47.283Z,89.4
2018-06-14T07:08:07.446Z,89.2
2018-06-14T07:08:27.608Z,89.1
2018-06-14T07:08:47.780Z,88.2
2018-06-14T07:09:07.954Z,88.4
2018-06-14T07:09:28.111Z,88.7
2018-06-14T07:09:48.266Z,88.8
2018-06-14T07:10:08.426Z,88.8
2018-06-14T07:10:28.569Z,89.1
2018-06-14T07:10:48.712Z,88.6
2018-06-14T07:11:08.867Z,88.5
2018-06-14T07:11:29.083Z,88.5
2018-06-14T07:11:49.228Z,88.4
2018-06-14T07:12:09.405Z,88.5
2018-06-14T07:12:29.568Z,88.8
2018-06-14T07:12:49.731Z,89.1
2018-06-14T07:13:09.924Z,88.9
2018-06-14T07:13:30.091Z,88.9
2018-06-14T07:13:50.238Z,89.2
2018-06-14T07:14:10.402Z,89.3
2018-06-14T07:14:30.564Z,88.9
2018-06-14T07:14:50.710Z,88.2
2018-06-14T07:15:10.844Z,87.9
2018-06-14T07:15:30.994Z,88.9
2018-06-14T07:15:51.153Z,89
2018-06-14T07:16:11.314Z,88.9
2018-06-14T07:16:31.500Z,88.5
2018-06-14T07:16:51.658Z,87.6
2018-06-14T07:17:11.801Z,87.8
2018-06-14T07:17:31.968Z,87.9
2018-06-14T07:17:52.125Z,88
2018-06-14T07:18:12.313Z,87.7
2018-06-14T07:18:32.497Z,87.4
2018-06-14T07:18:52.670Z,87.4
2018-06-14T07:19:12.816Z,87.2
2018-06-14T07:19:33.025Z,87.6
2018-06-14T07:19:53.246Z,87.7
2018-06-14T07:20:13.409Z,87.4
2018-06-14T07:20:33.590Z,87.3
2018-06-14T07:20:53.764Z,87.2
2018-06-14T07:21:13.939Z,87
2018-06-14T07:21:34.221Z,87
2018-06-14T07:21:54.522Z,87.3
2018-06-14T07:22:14.619Z,87.3
2018-06-14T07:22:34.803Z,87.4
2018-06-14T07:22:54.957Z,87.7
2018-06-14T07:23:15.142Z,87.2
2018-06-14T07:23:35.322Z,88.5
2018-06-14T07:23:55.515Z,88.2
2018-06-14T07:24:15.701Z,88.9
2018-06-14T07:24:35.853Z,88.3
2018-06-14T07:24:56.015Z,88.1
2018-06-14T07:25:16.179Z,87.6
2018-06-14T07:25:36.439Z,87.9
2018-06-14T07:25:56.677Z,88.7
2018-06-14T07:26:16.821Z,88.2
2018-06-14T07:26:36.995Z,88.8
2018-06-14T07:26:58.090Z,88.9
2018-06-14T07:27:18.270Z,88.9
2018-06-14T07:27:38.476Z,89.5
2018-06-14T07:27:58.634Z,89.8
2018-06-14T07:28:18.812Z,89.2
2018-06-14T07:28:38.974Z,89.6
2018-06-14T07:28:59.154Z,88.9
2018-06-14T07:29:19.315Z,89
2018-06-14T07:29:39.497Z,88.8
2018-06-14T07:30:00.521Z,88.8
2018-06-14T07:30:20.692Z,88.6
2018-06-14T07:30:40.864Z,88.9
2018-06-14T07:31:01.033Z,88
2018-06-14T07:31:22.149Z,87.9
2018-06-14T07:31:42.314Z,87.6
2018-06-14T07:32:03.075Z,87.2
2018-06-14T07:32:23.232Z,87
2018-06-14T07:32:43.393Z,87.3
2018-06-14T07:33:03.581Z,87.2
2018-06-14T07:33:23.730Z,87
2018-06-14T07:33:43.903Z,87.1
2018-06-14T07:34:04.073Z,86.7
2018-06-14T07:34:24.247Z,86.7
2018-06-14T07:34:44.423Z,86.5
2018-06-14T07:35:04.601Z,86.3
2018-06-14T07:35:24.775Z,86.2
2018-06-14T07:35:44.963Z,85.8
2018-06-14T07:36:05.155Z,86
2018-06-14T07:36:25.325Z,85.8
2018-06-14T07:36:45.505Z,85.9
2018-06-14T07:37:05.685Z,86.1
2018-06-14T07:37:25.819Z,85.9
2018-06-14T07:37:45.992Z,86
2018-06-14T07:38:06.106Z,85.8
2018-06-14T07:38:26.266Z,86
2018-06-14T07:38:46.468Z,85.9
2018-06-14T07:39:06.681Z,85.5
2018-06-14T07:39:26.849Z,86.4
2018-06-14T07:39:47.003Z,87
2018-06-14T07:40:07.196Z,85.7
2018-06-14T07:40:27.362Z,85.2
2018-06-14T07:40:47.520Z,85.4
2018-06-14T07:41:07.680Z,85.4
2018-06-14T07:41:27.835Z,85.9
2018-06-14T07:41:48.007Z,86.4
2018-06-14T07:42:08.182Z,87.1
2018-06-14T07:42:28.322Z,87.5
2018-06-14T07:42:48.517Z,87.1
2018-06-14T07:43:08.766Z,87.1
2018-06-14T07:43:28.951Z,86.7
2018-06-14T07:43:49.131Z,86.8
2018-06-14T07:44:09.827Z,87.3
2018-06-14T07:44:30.207Z,87.4
2018-06-14T07:44:50.338Z,86.5
2018-06-14T07:45:10.503Z,86.6
2018-06-14T07:45:30.652Z,86.3
2018-06-14T07:45:50.827Z,86.2
2018-06-14T07:46:10.991Z,86.8
2018-06-14T07:46:31.153Z,87
2018-06-14T07:46:51.312Z,87.1
2018-06-14T07:47:11.493Z,86.4
2018-06-14T07:47:31.679Z,85.9
2018-06-14T07:47:51.853Z,85.8
2018-06-14T07:48:12.033Z,86.8
2018-06-14T07:48:32.175Z,86.9
2018-06-14T07:48:52.388Z,86.3
2018-06-14T07:49:12.542Z,86.7
2018-06-14T07:49:32.709Z,87
2018-06-14T07:49:52.891Z,87.3
2018-06-14T07:50:13.629Z,87.3
2018-06-14T07:50:33.864Z,88.2
2018-06-14T07:50:54.067Z,87.7
2018-06-14T07:51:14.210Z,87.8
2018-06-14T07:51:34.402Z,87.6
2018-06-14T07:51:54.594Z,87.1
2018-06-14T07:52:14.764Z,86.9
2018-06-14T07:52:34.977Z,86.4
2018-06-14T07:52:55.201Z,86.3
2018-06-14T07:53:15.439Z,86.7
2018-06-14T07:53:35.551Z,87
2018-06-14T07:53:55.743Z,86.7
2018-06-14T07:54:16.097Z,86.7
2018-06-14T07:54:36.205Z,87.3
2018-06-14T07:54:57.081Z,86.9
2018-06-14T07:55:17.281Z,86.7
2018-06-14T07:55:37.451Z,86
2018-06-14T07:55:57.598Z,83.9
2018-06-14T07:56:17.815Z,83.1
2018-06-14T07:56:38.013Z,83.2
2018-06-14T07:56:58.236Z,83.3
2018-06-14T07:57:18.401Z,83.2
2018-06-14T07:57:38.567Z,84.1
2018-06-14T07:57:58.788Z,85.1
2018-06-14T07:58:18.931Z,84.7
2018-06-14T07:58:39.065Z,84.9
2018-06-14T07:58:59.253Z,85.4
2018-06-14T07:59:19.481Z,84.9
2018-06-14T07:59:39.675Z,85.3
2018-06-14T07:59:59.839Z,85.4
2018-06-14T08:00:20.053Z,84.8
2018-06-14T08:00:40.256Z,85.2
2018-06-14T08:01:00.427Z,84.8
2018-06-14T08:01:20.613Z,84.8
2018-06-14T08:01:40.793Z,84.7
2018-06-14T08:02:00.963Z,85.3
2018-06-14T08:02:21.136Z,84.3
2018-06-14T08:02:41.294Z,83.7
2018-06-14T08:03:01.504Z,82.8
2018-06-14T08:03:21.688Z,83.1
2018-06-14T08:03:41.904Z,83.5
2018-06-14T08:04:02.142Z,83.4
2018-06-14T08:04:22.289Z,82.7
2018-06-14T08:04:42.477Z,83.3
2018-06-14T08:05:02.659Z,82.9
2018-06-14T08:05:22.824Z,82
2018-06-14T08:05:42.955Z,81.8
2018-06-14T08:06:03.115Z,82.3
2018-06-14T08:06:23.326Z,82.9
2018-06-14T08:06:43.473Z,82.9
2018-06-14T08:07:03.720Z,83
2018-06-14T08:07:23.885Z,82.8
2018-06-14T08:07:44.076Z,82.5
2018-06-14T08:08:04.404Z,83.3
2018-06-14T08:08:24.564Z,84.1
2018-06-14T08:08:44.762Z,84.2
2018-06-14T08:09:04.915Z,83.9
2018-06-14T08:09:25.079Z,83.3
2018-06-14T08:09:45.260Z,82.3
2018-06-14T08:10:05.441Z,82
2018-06-14T08:10:25.603Z,83.1
2018-06-14T08:10:45.756Z,83.3
2018-06-14T08:11:05.946Z,82.9
2018-06-14T08:11:26.096Z,83.4
2018-06-14T08:11:46.260Z,83.2
2018-06-14T08:12:06.422Z,82.8
2018-06-14T08:12:26.677Z,83
2018-06-14T08:12:46.846Z,83.3
2018-06-14T08:13:06.946Z,83.1
2018-06-14T08:13:27.116Z,83.1
2018-06-14T08:13:47.305Z,83.5
2018-06-14T08:14:07.493Z,82.9
2018-06-14T08:14:27.647Z,83.2
2018-06-14T08:14:47.801Z,83.9
2018-06-14T08:15:07.961Z,84.1
2018-06-14T08:15:28.113Z,83.1
2018-06-14T08:15:48.270Z,83.1
2018-06-14T08:16:08.445Z,83.3
2018-06-14T08:16:28.621Z,83.3
2018-06-14T08:16:48.789Z,82.3
2018-06-14T08:17:08.933Z,81.5
2018-06-14T08:17:29.123Z,81.8
2018-06-14T08:17:49.341Z,82.9
2018-06-14T08:18:09.526Z,83.5
2018-06-14T08:18:29.702Z,83.3
2018-06-14T08:18:50.397Z,83
2018-06-14T08:19:10.569Z,83.6
2018-06-14T08:19:30.732Z,83.1
2018-06-14T08:19:50.923Z,83.5
2018-06-14T08:20:11.186Z,82.8
2018-06-14T08:20:31.357Z,83
2018-06-14T08:20:51.523Z,82.4
2018-06-14T08:21:11.681Z,84.1
2018-06-14T08:21:31.836Z,84.4
2018-06-14T08:21:52.004Z,84.2
2018-06-14T08:22:12.157Z,84.4
2018-06-14T08:22:32.315Z,84.1
2018-06-14T08:22:52.488Z,83.9
2018-06-14T08:23:12.676Z,83.7
2018-06-14T08:23:32.860Z,83.5
2018-06-14T08:23:53.020Z,83.3
2018-06-14T08:24:13.190Z,83.3
2018-06-14T08:24:33.390Z,82.7
2018-06-14T08:24:53.576Z,82.9
2018-06-14T08:25:13.833Z,83.3
2018-06-14T08:25:33.937Z,83.8
2018-06-14T08:25:54.150Z,83.5
2018-06-14T08:26:14.314Z,82.2
2018-06-14T08:26:34.477Z,82.6
2018-06-14T08:26:54.656Z,83.6
2018-06-14T08:27:14.829Z,83.4
2018-06-14T08:27:34.964Z,81.5
2018-06-14T08:27:55.225Z,81.3
2018-06-14T08:28:15.381Z,80.9
2018-06-14T08:28:35.517Z,80.9
2018-06-14T08:28:55.665Z,81.8
2018-06-14T08:29:15.815Z,81.2
2018-06-14T08:29:35.961Z,81.5
2018-06-14T08:29:56.141Z,81.4
2018-06-14T08:30:16.312Z,81.5
2018-06-14T08:30:36.525Z,81.4
2018-06-14T08:30:56.667Z,80.9
2018-06-14T08:31:16.818Z,81.1
2018-06-14T08:31:37.000Z,80.7
2018-06-14T08:31:57.221Z,79.7
2018-06-14T08:32:17.361Z,80.3
2018-06-14T08:32:37.520Z,80.9
2018-06-14T08:32:57.711Z,81.6
2018-06-14T08:33:17.872Z,80.7
2018-06-14T08:33:38.039Z,81
2018-06-14T08:33:58.305Z,81.3
2018-06-14T08:34:18.502Z,81.5
2018-06-14T08:34:38.674Z,81.1
2018-06-14T08:34:58.840Z,81.5
2018-06-14T08:35:19.049Z,81.2
2018-06-14T08:35:39.224Z,81.6
2018-06-14T08:35:59.409Z,82
2018-06-14T08:36:19.560Z,81.1
2018-06-14T08:36:39.726Z,80.1
2018-06-14T08:36:59.887Z,80.2
2018-06-14T08:37:20.058Z,81.1
2018-06-14T08:37:40.233Z,81.6
2018-06-14T08:38:00.447Z,81.5
2018-06-14T08:38:20.602Z,81.3
2018-06-14T08:38:40.776Z,81.5
2018-06-14T08:39:00.951Z,81.5
2018-06-14T08:39:21.129Z,79.9
2018-06-14T08:39:41.296Z,78.8
2018-06-14T08:40:01.514Z,78.1
2018-06-14T08:40:21.676Z,78.2
2018-06-14T08:40:41.826Z,77.9
2018-06-14T08:41:01.994Z,78.8
2018-06-14T08:41:22.132Z,78.5
2018-06-14T08:41:42.309Z,79.8
2018-06-14T08:42:02.480Z,79.5
2018-06-14T08:42:22.642Z,78.8
2018-06-14T08:42:42.806Z,77.7
2018-06-14T08:43:02.961Z,78.1
2018-06-14T08:43:23.144Z,75.8
2018-06-14T08:43:43.307Z,74.8
2018-06-14T08:44:03.466Z,75.1
2018-06-14T08:44:23.623Z,74.8
2018-06-14T08:44:43.875Z,75.5
2018-06-14T08:45:03.969Z,75.8
2018-06-14T08:45:24.164Z,77.1
2018-06-14T08:45:44.336Z,76.1
2018-06-14T08:46:04.515Z,75.8
2018-06-14T08:46:24.709Z,77.6
2018-06-14T08:46:44.892Z,78.2
2018-06-14T08:47:05.055Z,78.3
2018-06-14T08:47:25.241Z,79.9
2018-06-14T08:47:45.418Z,78.7
2018-06-14T08:48:05.588Z,77.4
2018-06-14T08:48:25.762Z,77
2018-06-14T08:48:45.926Z,77.1
2018-06-14T08:49:06.099Z,76.9
2018-06-14T08:49:26.258Z,77.1
2018-06-14T08:49:46.411Z,76.8
2018-06-14T08:50:06.571Z,77
2018-06-14T08:50:26.739Z,77
2018-06-14T08:50:46.901Z,77.5
2018-06-14T08:51:07.049Z,77.7
2018-06-14T08:51:27.215Z,78.9
2018-06-14T08:51:47.401Z,78.9
2018-06-14T08:52:07.633Z,78.9
2018-06-14T08:52:27.794Z,78.8
2018-06-14T08:52:47.920Z,78.9
2018-06-14T08:53:08.103Z,78.6
2018-06-14T08:53:28.269Z,79.2
2018-06-14T08:53:48.424Z,80.5
2018-06-14T08:54:08.586Z,80.9
2018-06-14T08:54:28.747Z,80.6
2018-06-14T08:54:48.880Z,79.7
2018-06-14T08:55:09.052Z,77.4
2018-06-14T08:55:29.223Z,77.1
2018-06-14T08:55:49.415Z,77.9
2018-06-14T08:56:09.575Z,78.4
2018-06-14T08:56:29.758Z,77.1
2018-06-14T08:56:49.913Z,77.2
2018-06-14T08:57:10.062Z,77.6
2018-06-14T08:57:30.243Z,76
2018-06-14T08:57:50.379Z,76.2
2018-06-14T08:58:10.607Z,77.3
2018-06-14T08:58:30.750Z,76.7
2018-06-14T08:58:50.928Z,75.4
2018-06-14T08:59:11.104Z,76.3
2018-06-14T08:59:31.262Z,76.7
2018-06-14T08:59:51.448Z,76.8
2018-06-14T09:00:11.616Z,77.2
2018-06-14T09:00:31.776Z,76.8
2018-06-14T09:00:51.935Z,76.9
2018-06-14T09:01:12.065Z,76.5
2018-06-14T09:01:32.254Z,75.7
2018-06-14T09:01:52.421Z,75.8
2018-06-14T09:02:12.593Z,76.3
2018-06-14T09:02:32.759Z,77.1
2018-06-14T09:02:53.001Z,77.3
2018-06-14T09:03:13.213Z,77.9
2018-06-14T09:03:33.377Z,78.6
2018-06-14T09:03:53.546Z,79.2
2018-06-14T09:04:13.728Z,78.9
2018-06-14T09:04:33.881Z,77.3
2018-06-14T09:04:54.056Z,76.7
2018-06-14T09:05:14.202Z,77.1
2018-06-14T09:05:34.363Z,77.4
2018-06-14T09:05:54.526Z,78.6
2018-06-14T09:06:15.566Z,78
2018-06-14T09:06:35.727Z,78
2018-06-14T09:06:55.891Z,77.3
2018-06-14T09:07:16.046Z,77.2
2018-06-14T09:07:36.176Z,75.7
2018-06-14T09:07:56.325Z,76.5
2018-06-14T09:08:16.522Z,76.5
2018-06-14T09:08:36.647Z,77.2
2018-06-14T09:08:56.845Z,77
2018-06-14T09:09:17.008Z,76.7
2018-06-14T09:09:37.189Z,77
2018-06-14T09:09:57.341Z,77.6
2018-06-14T09:10:17.512Z,77.4
2018-06-14T09:10:37.692Z,77.7
2018-06-14T09:10:57.822Z,77.4
2018-06-14T09:11:18.023Z,78.3
2018-06-14T09:11:38.179Z,78.3
2018-06-14T09:11:58.381Z,76.1
2018-06-14T09:12:18.540Z,74.7
2018-06-14T09:12:38.700Z,73.6
2018-06-14T09:12:58.855Z,73.3
2018-06-14T09:13:19.013Z,74.5
2018-06-14T09:13:39.201Z,75
2018-06-14T09:13:59.438Z,75.7
2018-06-14T09:14:19.629Z,76.8
2018-06-14T09:14:39.805Z,76.7
2018-06-14T09:14:59.973Z,75.5
2018-06-14T09:15:20.123Z,74.9
2018-06-14T09:15:40.291Z,75.8
2018-06-14T09:16:00.453Z,74.6
2018-06-14T09:16:20.590Z,74.4
2018-06-14T09:16:40.755Z,75
2018-06-14T09:17:00.946Z,75.5
2018-06-14T09:17:21.110Z,76.9
2018-06-14T09:17:41.277Z,77.8
2018-06-14T09:18:01.448Z,77.8
2018-06-14T09:18:21.618Z,78.1
2018-06-14T09:18:41.809Z,77.7
2018-06-14T09:19:01.979Z,77.3
2018-06-14T09:19:22.166Z,76.6
2018-06-14T09:19:42.365Z,74.8
2018-06-14T09:20:02.530Z,74.1
2018-06-14T09:20:22.740Z,74.5
2018-06-14T09:20:42.918Z,75.4
2018-06-14T09:21:03.076Z,74.6
2018-06-14T09:21:23.287Z,73.6
2018-06-14T09:21:43.412Z,73.5
2018-06-14T09:22:03.592Z,73.2
2018-06-14T09:22:23.766Z,73.8
2018-06-14T09:22:43.943Z,74.6
2018-06-14T09:23:04.124Z,74.7
2018-06-14T09:23:24.271Z,73.7
2018-06-14T09:23:44.419Z,72.1
2018-06-14T09:24:04.604Z,73
2018-06-14T09:24:24.764Z,74
2018-06-14T09:24:44.928Z,74.4
2018-06-14T09:25:05.084Z,75.3
2018-06-14T09:25:25.251Z,74.6
2018-06-14T09:25:45.444Z,73.5
2018-06-14T09:26:05.599Z,73.5
2018-06-14T09:26:25.746Z,72.6
2018-06-14T09:26:45.917Z,72.2
2018-06-14T09:27:06.054Z,73
2018-06-14T09:27:26.225Z,73.6
2018-06-14T09:27:46.370Z,73.7
2018-06-14T09:28:06.522Z,73.8
2018-06-14T09:28:26.680Z,73.8
2018-06-14T09:28:46.853Z,73.7
2018-06-14T09:29:07.021Z,73.6
2018-06-14T09:29:27.175Z,72.9
2018-06-14T09:29:47.400Z,72.9
2018-06-14T09:30:07.683Z,72.9
2018-06-14T09:30:27.864Z,71.8
2018-06-14T09:30:48.048Z,72.2
2018-06-14T09:31:08.190Z,73.7
2018-06-14T09:31:28.367Z,72.9
2018-06-14T09:31:48.561Z,72
2018-06-14T09:32:08.716Z,73.4
2018-06-14T09:32:28.865Z,73
2018-06-14T09:32:49.005Z,73.5
2018-06-14T09:33:09.203Z,73.7
2018-06-14T09:33:29.377Z,72.9
2018-06-14T09:33:49.542Z,73.4
2018-06-14T09:34:09.662Z,73.8
2018-06-14T09:34:29.835Z,74.5
2018-06-14T09:34:49.992Z,73.7
2018-06-14T09:35:10.158Z,73.2
2018-06-14T09:35:30.322Z,74
2018-06-14T09:35:50.515Z,72.7
2018-06-14T09:36:10.658Z,72.9
2018-06-14T09:36:30.831Z,73
2018-06-14T09:36:51.002Z,74.4
2018-06-14T09:37:11.157Z,75
2018-06-14T09:37:31.333Z,74.1
2018-06-14T09:37:51.515Z,74.2
2018-06-14T09:38:11.686Z,74.9
2018-06-14T09:38:31.842Z,74.7
2018-06-14T09:38:51.999Z,74.4
2018-06-14T09:39:12.154Z,73.6
2018-06-14T09:39:32.313Z,73.3
2018-06-14T09:39:52.473Z,72.8
2018-06-14T09:40:12.637Z,73.9
2018-06-14T09:40:32.803Z,73.8
2018-06-14T09:40:52.962Z,73.8
2018-06-14T09:41:13.131Z,72.9
2018-06-14T09:41:33.282Z,72.8
2018-06-14T09:41:53.450Z,73.6
2018-06-14T09:42:13.618Z,74.7
2018-06-14T09:42:33.794Z,74.4
2018-06-14T09:42:54.041Z,73.9
2018-06-14T09:43:14.703Z,73.1
2018-06-14T09:43:36.132Z,72.8
2018-06-14T09:43:56.316Z,73
2018-06-14T09:44:16.483Z,73.1
2018-06-14T09:44:36.657Z,73
2018-06-14T09:44:56.848Z,69.6
2018-06-14T09:45:17.003Z,67.9
2018-06-14T09:45:37.169Z,66.6
2018-06-14T09:45:57.328Z,66.1
2018-06-14T09:46:17.472Z,67.5
2018-06-14T09:46:37.635Z,67.5
2018-06-14T09:46:57.799Z,66.8
2018-06-14T09:47:17.963Z,67.3
2018-06-14T09:47:38.097Z,68.1
2018-06-14T09:47:58.254Z,68.7
2018-06-14T09:48:18.443Z,70
2018-06-14T09:48:38.616Z,70
2018-06-14T09:48:58.779Z,69.6
2018-06-14T09:49:18.928Z,71.4
2018-06-14T09:49:39.075Z,71.3
2018-06-14T09:49:59.270Z,71.2
2018-06-14T09:50:19.492Z,68.2
2018-06-14T09:50:39.637Z,67.9
2018-06-14T09:50:59.796Z,68
2018-06-14T09:51:19.956Z,66.3
2018-06-14T09:51:40.911Z,66
2018-06-14T09:52:01.089Z,66.4
2018-06-14T09:52:21.251Z,66.8
2018-06-14T09:52:41.404Z,66.2
2018-06-14T09:53:01.579Z,66.9
2018-06-14T09:53:21.768Z,66.9
2018-06-14T09:53:41.914Z,67.4
2018-06-14T09:54:02.091Z,68.1
2018-06-14T09:54:22.236Z,67.4
2018-06-14T09:54:42.391Z,66.7
2018-06-14T09:55:02.555Z,66.9
2018-06-14T09:55:22.695Z,64.6
2018-06-14T09:55:42.861Z,63.8
2018-06-14T09:56:03.033Z,64.3
2018-06-14T09:56:23.220Z,64.1
2018-06-14T09:56:43.387Z,65.6
2018-06-14T09:57:03.532Z,67.8
2018-06-14T09:57:23.704Z,68.7
2018-06-14T09:57:43.917Z,69.2
2018-06-14T09:58:04.088Z,67.2
2018-06-14T09:58:24.256Z,66.4
2018-06-14T09:58:44.416Z,68.4
2018-06-14T09:59:04.557Z,68.9
2018-06-14T09:59:24.775Z,67.3
2018-06-14T09:59:44.955Z,67.6
2018-06-14T10:00:05.138Z,69.1
2018-06-14T10:00:25.347Z,69.8
2018-06-14T10:00:45.599Z,69.8
2018-06-14T10:01:05.749Z,70.9
2018-06-14T10:01:25.930Z,71.3
2018-06-14T10:01:46.110Z,71
2018-06-14T10:02:06.362Z,70.3
2018-06-14T10:02:26.543Z,68.1
2018-06-14T10:02:46.747Z,66.7
2018-06-14T10:03:06.920Z,67.3
2018-06-14T10:03:27.071Z,67.9
2018-06-14T10:03:47.726Z,67.6
2018-06-14T10:04:09.245Z,67.9
2018-06-14T10:04:29.417Z,68.4
2018-06-14T10:04:50.530Z,68.5
2018-06-14T10:05:10.727Z,68.1
2018-06-14T10:05:30.867Z,67.4
2018-06-14T10:05:51.119Z,67.2
2018-06-14T10:06:11.335Z,67.2
2018-06-14T10:06:31.477Z,68.2
2018-06-14T10:06:51.624Z,68.1
2018-06-14T10:07:11.808Z,67.6
2018-06-14T10:07:32.198Z,67.8
2018-06-14T10:07:52.941Z,68
2018-06-14T10:08:13.163Z,68.1
2018-06-14T10:08:33.328Z,68.4
2018-06-14T10:08:53.489Z,68.4
2018-06-14T10:09:13.628Z,68.1
2018-06-14T10:09:33.823Z,68.2
2018-06-14T10:09:54.002Z,69.1
2018-06-14T10:10:14.168Z,68.6
2018-06-14T10:10:34.348Z,68.3
2018-06-14T10:10:54.490Z,68.4
2018-06-14T10:11:14.649Z,68.5
2018-06-14T10:11:34.809Z,68.3
2018-06-14T10:11:54.963Z,68.4
2018-06-14T10:12:15.095Z,68.8
2018-06-14T10:12:35.270Z,69.9
2018-06-14T10:12:55.510Z,70.6
2018-06-14T10:13:15.686Z,71.3
2018-06-14T10:13:35.867Z,71.2
2018-06-14T10:13:56.042Z,70
2018-06-14T10:14:16.204Z,68.6
2018-06-14T10:14:36.348Z,68.8
2018-06-14T10:14:56.520Z,69.1
2018-06-14T10:15:16.650Z,68.4
2018-06-14T10:15:38.346Z,68.3
2018-06-14T10:15:58.575Z,68.2
2018-06-14T10:16:18.732Z,67.9
2018-06-14T10:16:38.960Z,67.6
2018-06-14T10:16:59.140Z,67.9
2018-06-14T10:17:19.283Z,67.8
2018-06-14T10:17:39.441Z,68.3
2018-06-14T10:17:59.679Z,67.7
2018-06-14T10:18:20.394Z,67.4
2018-06-14T10:18:40.615Z,66.7
2018-06-14T10:19:00.897Z,66.6
2018-06-14T10:19:21.148Z,67.4
2018-06-14T10:19:41.317Z,68.1
2018-06-14T10:20:01.441Z,68.6
2018-06-14T10:20:21.612Z,69.7
2018-06-14T10:20:41.774Z,70.7
2018-06-14T10:21:02.855Z,71
2018-06-14T10:21:23.023Z,71.9
2018-06-14T10:21:43.226Z,73.2
2018-06-14T10:22:03.371Z,72.1
2018-06-14T10:22:23.568Z,71.6
2018-06-14T10:22:43.718Z,71.7
2018-06-14T10:23:03.909Z,71.7
2018-06-14T10:23:24.066Z,71.4
2018-06-14T10:23:44.201Z,70.5
2018-06-14T10:24:04.392Z,69.8
2018-06-14T10:24:24.555Z,69
2018-06-14T10:24:44.705Z,68.1
2018-06-14T10:25:04.883Z,66.9
2018-06-14T10:25:25.042Z,66.4
2018-06-14T10:25:45.871Z,67.2
2018-06-14T10:26:06.025Z,67.9
2018-06-14T10:26:26.252Z,68.7
2018-06-14T10:26:46.397Z,68.9
2018-06-14T10:27:06.553Z,69.2
2018-06-14T10:27:26.694Z,69.7
2018-06-14T10:27:46.844Z,70.3
2018-06-14T10:28:07.009Z,70.6
2018-06-14T10:28:27.164Z,71.9
2018-06-14T10:28:47.323Z,72.2
2018-06-14T10:29:07.529Z,73
2018-06-14T10:29:27.785Z,73.2
2018-06-14T10:29:47.916Z,73.1
2018-06-14T10:30:08.081Z,72.1
2018-06-14T10:30:28.250Z,71.3
2018-06-14T10:30:48.414Z,71.1
2018-06-14T10:31:08.567Z,69.5
2018-06-14T10:31:28.731Z,67.7
2018-06-14T10:31:48.916Z,66.7
2018-06-14T10:32:09.105Z,67.2
2018-06-14T10:32:29.288Z,68
2018-06-14T10:32:49.442Z,66.6
2018-06-14T10:33:09.599Z,66.2
2018-06-14T10:33:29.792Z,65
2018-06-14T10:33:49.964Z,63.9
2018-06-14T10:34:10.161Z,65
2018-06-14T10:34:30.337Z,64.4
2018-06-14T10:34:50.521Z,64.1
2018-06-14T10:35:10.693Z,62.7
2018-06-14T10:35:30.863Z,63.6
2018-06-14T10:35:51.012Z,62.2
2018-06-14T10:36:11.215Z,62.9
2018-06-14T10:36:31.418Z,62.2
2018-06-14T10:36:51.575Z,62.3
2018-06-14T10:37:11.769Z,62.2
2018-06-14T10:37:31.895Z,63
2018-06-14T10:37:52.049Z,64.5
2018-06-14T10:38:12.224Z,65.1
2018-06-14T10:38:32.385Z,63.3
2018-06-14T10:38:52.547Z,63.3
2018-06-14T10:39:12.710Z,63.7
2018-06-14T10:39:32.867Z,63.7
2018-06-14T10:39:53.076Z,64.3
2018-06-14T10:40:13.206Z,64
2018-06-14T10:40:33.348Z,62.5
2018-06-14T10:40:53.516Z,62.5
2018-06-14T10:41:13.678Z,62.5
2018-06-14T10:41:33.814Z,62.6
2018-06-14T10:41:53.951Z,62.7
2018-06-14T10:42:14.128Z,63
2018-06-14T10:42:34.300Z,63.5
2018-06-14T10:42:54.473Z,62.7
2018-06-14T10:43:14.679Z,62.7
2018-06-14T10:43:34.992Z,64.2
2018-06-14T10:43:55.113Z,65.5
2018-06-14T10:44:15.285Z,65
2018-06-14T10:44:35.497Z,65.2
2018-06-14T10:44:55.628Z,67.8
2018-06-14T10:45:15.805Z,68.3
2018-06-14T10:45:35.949Z,68.2
2018-06-14T10:45:56.106Z,66.7
2018-06-14T10:46:16.317Z,66.2
2018-06-14T10:46:36.490Z,65.1
2018-06-14T10:46:56.646Z,66.1
2018-06-14T10:47:16.841Z,68.6
2018-06-14T10:47:36.994Z,69.6
2018-06-14T10:47:57.186Z,71.1
2018-06-14T10:48:17.465Z,70.8
2018-06-14T10:48:37.615Z,68.2
2018-06-14T10:48:57.764Z,66
2018-06-14T10:49:17.939Z,65.6
2018-06-14T10:49:38.112Z,66.8
2018-06-14T10:49:58.290Z,67.5
2018-06-14T10:50:18.462Z,68.2
2018-06-14T10:50:38.629Z,69.1
2018-06-14T10:50:58.788Z,69.3
2018-06-14T10:51:18.943Z,67.6
2018-06-14T10:51:39.120Z,66.3
2018-06-14T10:51:59.294Z,65.8
2018-06-14T10:52:19.552Z,63.4
2018-06-14T10:52:39.666Z,62.8
2018-06-14T10:52:59.862Z,62.9
2018-06-14T10:53:20.034Z,64.3
2018-06-14T10:53:40.222Z,65
2018-06-14T10:54:00.394Z,65.7
2018-06-14T10:54:20.592Z,65.4
2018-06-14T10:54:40.764Z,66.7
2018-06-14T10:55:00.952Z,67.1
2018-06-14T10:55:21.154Z,66.9
2018-06-14T10:55:41.336Z,67.4
2018-06-14T10:56:01.498Z,65.7
2018-06-14T10:56:21.676Z,62.8
2018-06-14T10:56:41.829Z,62
2018-06-14T10:57:02.894Z,61.3
2018-06-14T10:57:23.089Z,61.7
2018-06-14T10:57:43.299Z,62.1
2018-06-14T10:58:03.442Z,61.8
2018-06-14T10:58:23.665Z,63.6
2018-06-14T10:58:43.842Z,63.6
2018-06-14T10:59:04.015Z,66.7
2018-06-14T10:59:24.171Z,67.3
2018-06-14T10:59:44.393Z,68.1
2018-06-14T11:00:04.679Z,69.3
2018-06-14T11:00:24.845Z,70
2018-06-14T11:00:45.023Z,70.3
2018-06-14T11:01:05.249Z,70.1
2018-06-14T11:01:25.409Z,68.7
2018-06-14T11:01:45.611Z,68.1
2018-06-14T11:02:05.795Z,68.2
2018-06-14T11:02:25.923Z,68.3
2018-06-14T11:02:46.108Z,68.2
2018-06-14T11:03:06.267Z,68.1
2018-06-14T11:03:26.509Z,68.8
2018-06-14T11:03:46.664Z,68.5
2018-06-14T11:04:06.855Z,68.5
2018-06-14T11:04:26.991Z,68
2018-06-14T11:04:47.169Z,68
2018-06-14T11:05:07.335Z,68.9
2018-06-14T11:05:27.529Z,68.8
2018-06-14T11:05:47.718Z,67
2018-06-14T11:06:07.973Z,66.5
2018-06-14T11:06:28.134Z,66.9
2018-06-14T11:06:48.397Z,65.9
2018-06-14T11:07:09.321Z,65.7
2018-06-14T11:07:29.489Z,65.2
2018-06-14T11:07:49.671Z,67.3
2018-06-14T11:08:09.834Z,68.5
2018-06-14T11:08:30.103Z,67.4
2018-06-14T11:08:50.356Z,66.1
2018-06-14T11:09:10.532Z,66.9
2018-06-14T11:09:30.740Z,67
2018-06-14T11:09:50.952Z,67.4
2018-06-14T11:10:11.141Z,67.9
2018-06-14T11:10:31.340Z,67.6
2018-06-14T11:10:51.587Z,65.4
2018-06-14T11:11:11.781Z,63.6
2018-06-14T11:11:32.005Z,63.7
2018-06-14T11:11:52.173Z,65.6
2018-06-14T11:12:12.353Z,66.4
2018-06-14T11:12:32.620Z,66.8
2018-06-14T11:12:52.827Z,67.6
2018-06-14T11:13:13.004Z,68.3
2018-06-14T11:13:33.193Z,67.6
2018-06-14T11:13:53.362Z,67.5
2018-06-14T11:14:13.586Z,67.4
2018-06-14T11:14:33.785Z,66.3
2018-06-14T11:14:53.956Z,66.1
2018-06-14T11:15:14.129Z,66.2
2018-06-14T11:15:34.268Z,64.4
2018-06-14T11:15:54.446Z,64.6
2018-06-14T11:16:14.681Z,66.5
2018-06-14T11:16:34.935Z,67.6
2018-06-14T11:16:55.135Z,68.7
2018-06-14T11:17:15.372Z,68.3
2018-06-14T11:17:35.637Z,68.6
2018-06-14T11:17:55.816Z,67.4
2018-06-14T11:18:15.998Z,65.7
2018-06-14T11:18:36.169Z,65.5
2018-06-14T11:18:56.422Z,65.8
2018-06-14T11:19:16.664Z,66.9
2018-06-14T11:19:36.854Z,66.6
2018-06-14T11:19:57.051Z,67.8
2018-06-14T11:20:17.274Z,68.3
2018-06-14T11:20:37.241Z,68.4
2018-06-14T11:20:57.461Z,66.7
2018-06-14T11:21:17.609Z,64.8
2018-06-14T11:21:37.830Z,63.3
2018-06-14T11:21:58.108Z,62.9
2018-06-14T11:22:18.360Z,62.7
2018-06-14T11:22:38.519Z,64
2018-06-14T11:22:58.757Z,64
2018-06-14T11:23:18.943Z,62.8
2018-06-14T11:23:39.156Z,62.4
2018-06-14T11:23:59.306Z,62.7
2018-06-14T11:24:19.486Z,64.1
2018-06-14T11:24:39.707Z,64.1
2018-06-14T11:24:59.908Z,65.9
2018-06-14T11:25:20.100Z,63.5
2018-06-14T11:25:40.300Z,62.8